sensor_id;sensor_type;location;lat;lon;timestamp;temperature;humidity
8939;DHT22;4504;48.810;9.172;2023-07-29T00:01:37;17.90;99.90
8939;DHT22;4504;48.810;9.172;2023-07-29T00:04:07;17.90;99.90
8939;DHT22;4504;48.810;9.172;2023-07-29T00:06:35;17.90;99.90
8939;DHT22;4504;48.810;9.172;2023-07-29T00:09:02;17.90;99.90
8939;DHT22;4504;48.810;9.172;2023-07-29T00:11:29;18.00;99.90
8939;DHT22;4504;48.810;9.172;2023-07-29T00:13:58;18.00;99.90
8939;DHT22;4504;48.810;9.172;2023-07-29T00:16:25;18.10;99.90
8939;DHT22;4504;48.810;9.172;2023-07-29T00:18:52;18.10;99.90
8939;DHT22;4504;48.810;9.172;2023-07-29T00:21:20;18.10;99.90
8939;DHT22;4504;48.810;9.172;2023-07-29T00:23:47;18.00;99.90
8939;DHT22;4504;48.810;9.172;2023-07-29T00:26:14;18.10;99.90
8939;DHT22;4504;48.810;9.172;2023-07-29T00:28:41;18.10;99.90
8939;DHT22;4504;48.810;9.172;2023-07-29T00:31:08;18.10;99.90
8939;DHT22;4504;48.810;9.172;2023-07-29T00:33:36;18.10;99.90
8939;DHT22;4504;48.810;9.172;2023-07-29T00:36:03;18.10;99.90
8939;DHT22;4504;48.810;9.172;2023-07-29T00:38:32;18.10;99.90
8939;DHT22;4504;48.810;9.172;2023-07-29T00:41:00;18.20;99.90
8939;DHT22;4504;48.810;9.172;2023-07-29T00:43:29;18.10;99.90
8939;DHT22;4504;48.810;9.172;2023-07-29T00:45:56;18.10;99.90
8939;DHT22;4504;48.810;9.172;2023-07-29T00:48:23;18.10;99.90
8939;DHT22;4504;48.810;9.172;2023-07-29T00:50:51;18.10;99.90
8939;DHT22;4504;48.810;9.172;2023-07-29T00:53:18;18.10;99.90
8939;DHT22;4504;48.810;9.172;2023-07-29T00:55:46;18.10;99.90
8939;DHT22;4504;48.810;9.172;2023-07-29T00:58:14;18.20;99.90
8939;DHT22;4504;48.810;9.172;2023-07-29T01:00:42;18.20;99.90
8939;DHT22;4504;48.810;9.172;2023-07-29T01:03:09;18.20;99.90
8939;DHT22;4504;48.810;9.172;2023-07-29T01:05:40;18.30;99.90
8939;DHT22;4504;48.810;9.172;2023-07-29T01:08:21;18.30;99.90
8939;DHT22;4504;48.810;9.172;2023-07-29T01:10:58;18.30;99.90
8939;DHT22;4504;48.810;9.172;2023-07-29T01:13:33;18.30;99.90
8939;DHT22;4504;48.810;9.172;2023-07-29T01:16:07;18.20;99.90
8939;DHT22;4504;48.810;9.172;2023-07-29T01:18:36;18.10;99.90
8939;DHT22;4504;48.810;9.172;2023-07-29T01:21:08;18.20;99.90
8939;DHT22;4504;48.810;9.172;2023-07-29T01:23:38;18.10;99.90
8939;DHT22;4504;48.810;9.172;2023-07-29T01:26:05;18.10;99.90
8939;DHT22;4504;48.810;9.172;2023-07-29T01:28:33;18.10;99.90
8939;DHT22;4504;48.810;9.172;2023-07-29T01:31:10;18.10;99.90
8939;DHT22;4504;48.810;9.172;2023-07-29T01:33:42;18.10;99.90
8939;DHT22;4504;48.810;9.172;2023-07-29T01:36:15;18.10;99.90
8939;DHT22;4504;48.810;9.172;2023-07-29T01:38:44;18.20;99.90
8939;DHT22;4504;48.810;9.172;2023-07-29T01:41:12;18.20;99.90
8939;DHT22;4504;48.810;9.172;2023-07-29T01:43:40;18.20;99.90
8939;DHT22;4504;48.810;9.172;2023-07-29T01:46:09;18.20;99.90
8939;DHT22;4504;48.810;9.172;2023-07-29T01:48:38;18.20;99.90
8939;DHT22;4504;48.810;9.172;2023-07-29T01:51:05;18.20;99.90
8939;DHT22;4504;48.810;9.172;2023-07-29T01:53:32;18.10;99.90
8939;DHT22;4504;48.810;9.172;2023-07-29T01:56:02;18.10;99.90
8939;DHT22;4504;48.810;9.172;2023-07-29T01:58:31;18.10;99.90
8939;DHT22;4504;48.810;9.172;2023-07-29T02:00:58;18.10;99.90
8939;DHT22;4504;48.810;9.172;2023-07-29T02:03:25;18.10;99.90
8939;DHT22;4504;48.810;9.172;2023-07-29T02:05:52;18.00;99.90
8939;DHT22;4504;48.810;9.172;2023-07-29T02:08:19;18.00;99.90
8939;DHT22;4504;48.810;9.172;2023-07-29T02:10:46;18.00;99.90
8939;DHT22;4504;48.810;9.172;2023-07-29T02:13:15;18.10;99.90
8939;DHT22;4504;48.810;9.172;2023-07-29T02:15:42;18.10;99.90
8939;DHT22;4504;48.810;9.172;2023-07-29T02:18:09;18.10;99.90
8939;DHT22;4504;48.810;9.172;2023-07-29T02:20:36;18.00;99.90
8939;DHT22;4504;48.810;9.172;2023-07-29T02:23:03;18.10;99.90
8939;DHT22;4504;48.810;9.172;2023-07-29T02:25:30;18.00;99.90
8939;DHT22;4504;48.810;9.172;2023-07-29T02:27:57;18.00;99.90
8939;DHT22;4504;48.810;9.172;2023-07-29T02:30:26;18.00;99.90
8939;DHT22;4504;48.810;9.172;2023-07-29T02:32:53;18.00;99.90
8939;DHT22;4504;48.810;9.172;2023-07-29T02:35:20;18.00;99.90
8939;DHT22;4504;48.810;9.172;2023-07-29T02:37:47;18.00;99.90
8939;DHT22;4504;48.810;9.172;2023-07-29T02:40:14;18.00;99.90
8939;DHT22;4504;48.810;9.172;2023-07-29T02:42:41;18.00;99.90
8939;DHT22;4504;48.810;9.172;2023-07-29T02:45:08;18.00;99.90
8939;DHT22;4504;48.810;9.172;2023-07-29T02:47:38;18.00;99.90
8939;DHT22;4504;48.810;9.172;2023-07-29T02:50:06;17.90;99.90
8939;DHT22;4504;48.810;9.172;2023-07-29T02:52:33;17.90;99.90
8939;DHT22;4504;48.810;9.172;2023-07-29T02:55:00;17.90;99.90
8939;DHT22;4504;48.810;9.172;2023-07-29T02:57:27;17.90;99.90
8939;DHT22;4504;48.810;9.172;2023-07-29T02:59:54;17.90;99.90
8939;DHT22;4504;48.810;9.172;2023-07-29T03:02:21;17.90;99.90
8939;DHT22;4504;48.810;9.172;2023-07-29T03:04:49;18.00;99.90
8939;DHT22;4504;48.810;9.172;2023-07-29T03:07:16;18.00;99.90
8939;DHT22;4504;48.810;9.172;2023-07-29T03:09:43;18.00;99.90
8939;DHT22;4504;48.810;9.172;2023-07-29T03:12:10;17.90;99.90
8939;DHT22;4504;48.810;9.172;2023-07-29T03:14:37;17.80;99.90
8939;DHT22;4504;48.810;9.172;2023-07-29T03:17:05;17.80;99.90
8939;DHT22;4504;48.810;9.172;2023-07-29T03:19:32;17.80;99.90
8939;DHT22;4504;48.810;9.172;2023-07-29T03:22:00;17.80;99.90
8939;DHT22;4504;48.810;9.172;2023-07-29T03:24:27;17.80;99.90
8939;DHT22;4504;48.810;9.172;2023-07-29T03:26:54;17.80;99.90
8939;DHT22;4504;48.810;9.172;2023-07-29T03:29:21;17.80;99.90
8939;DHT22;4504;48.810;9.172;2023-07-29T03:31:48;17.80;99.90
8939;DHT22;4504;48.810;9.172;2023-07-29T03:34:16;17.90;99.90
8939;DHT22;4504;48.810;9.172;2023-07-29T03:36:46;17.90;99.90
8939;DHT22;4504;48.810;9.172;2023-07-29T03:39:15;18.00;99.90
8939;DHT22;4504;48.810;9.172;2023-07-29T03:41:42;18.00;99.90
8939;DHT22;4504;48.810;9.172;2023-07-29T03:44:09;18.00;99.90
8939;DHT22;4504;48.810;9.172;2023-07-29T03:46:36;18.00;99.90
8939;DHT22;4504;48.810;9.172;2023-07-29T03:49:05;18.00;99.90
8939;DHT22;4504;48.810;9.172;2023-07-29T03:51:32;18.00;99.90
8939;DHT22;4504;48.810;9.172;2023-07-29T03:53:59;18.00;99.90
8939;DHT22;4504;48.810;9.172;2023-07-29T03:56:27;18.00;99.90
8939;DHT22;4504;48.810;9.172;2023-07-29T03:59:02;18.00;99.90
8939;DHT22;4504;48.810;9.172;2023-07-29T04:01:29;18.00;99.90
8939;DHT22;4504;48.810;9.172;2023-07-29T04:03:58;18.00;99.90
8939;DHT22;4504;48.810;9.172;2023-07-29T04:06:25;18.00;99.90
8939;DHT22;4504;48.810;9.172;2023-07-29T04:08:53;18.00;99.90
8939;DHT22;4504;48.810;9.172;2023-07-29T04:11:20;18.00;99.90
8939;DHT22;4504;48.810;9.172;2023-07-29T04:13:49;18.00;99.90
8939;DHT22;4504;48.810;9.172;2023-07-29T04:16:16;17.90;99.90
8939;DHT22;4504;48.810;9.172;2023-07-29T04:18:43;18.00;99.90
8939;DHT22;4504;48.810;9.172;2023-07-29T04:21:10;17.90;99.90
8939;DHT22;4504;48.810;9.172;2023-07-29T04:23:38;17.90;99.90
8939;DHT22;4504;48.810;9.172;2023-07-29T04:26:06;17.90;99.90
8939;DHT22;4504;48.810;9.172;2023-07-29T04:28:33;17.90;99.90
8939;DHT22;4504;48.810;9.172;2023-07-29T04:31:01;17.90;99.90
8939;DHT22;4504;48.810;9.172;2023-07-29T04:33:29;17.90;99.90
8939;DHT22;4504;48.810;9.172;2023-07-29T04:35:56;17.90;99.90
8939;DHT22;4504;48.810;9.172;2023-07-29T04:38:30;17.90;99.90
8939;DHT22;4504;48.810;9.172;2023-07-29T04:40:57;17.90;99.90
8939;DHT22;4504;48.810;9.172;2023-07-29T04:43:27;17.90;99.90
8939;DHT22;4504;48.810;9.172;2023-07-29T04:45:54;17.80;99.90
8939;DHT22;4504;48.810;9.172;2023-07-29T04:48:22;17.80;99.90
8939;DHT22;4504;48.810;9.172;2023-07-29T04:50:50;17.80;99.90
8939;DHT22;4504;48.810;9.172;2023-07-29T04:53:17;17.70;99.90
8939;DHT22;4504;48.810;9.172;2023-07-29T04:55:44;17.70;99.90
8939;DHT22;4504;48.810;9.172;2023-07-29T04:58:11;17.70;99.90
8939;DHT22;4504;48.810;9.172;2023-07-29T05:00:38;17.70;99.90
8939;DHT22;4504;48.810;9.172;2023-07-29T05:03:05;17.60;99.90
8939;DHT22;4504;48.810;9.172;2023-07-29T05:05:33;17.70;99.90
8939;DHT22;4504;48.810;9.172;2023-07-29T05:08:01;17.70;99.90
8939;DHT22;4504;48.810;9.172;2023-07-29T05:10:28;17.70;99.90
8939;DHT22;4504;48.810;9.172;2023-07-29T05:12:55;17.70;99.90
8939;DHT22;4504;48.810;9.172;2023-07-29T05:15:22;17.70;99.90
8939;DHT22;4504;48.810;9.172;2023-07-29T05:17:49;17.70;99.90
8939;DHT22;4504;48.810;9.172;2023-07-29T05:20:16;17.70;99.90
8939;DHT22;4504;48.810;9.172;2023-07-29T05:22:44;17.80;99.90
8939;DHT22;4504;48.810;9.172;2023-07-29T05:25:11;17.80;99.90
8939;DHT22;4504;48.810;9.172;2023-07-29T05:27:38;17.80;99.90
8939;DHT22;4504;48.810;9.172;2023-07-29T05:30:06;17.90;99.90
8939;DHT22;4504;48.810;9.172;2023-07-29T05:32:34;17.90;99.90
8939;DHT22;4504;48.810;9.172;2023-07-29T05:35:01;17.80;99.90
8939;DHT22;4504;48.810;9.172;2023-07-29T05:37:28;17.90;99.90
8939;DHT22;4504;48.810;9.172;2023-07-29T05:39:57;17.90;99.90
8939;DHT22;4504;48.810;9.172;2023-07-29T05:42:24;17.90;99.90
8939;DHT22;4504;48.810;9.172;2023-07-29T05:44:51;18.00;99.90
8939;DHT22;4504;48.810;9.172;2023-07-29T05:47:19;17.90;99.90
8939;DHT22;4504;48.810;9.172;2023-07-29T05:49:47;18.00;99.90
8939;DHT22;4504;48.810;9.172;2023-07-29T05:52:14;18.00;99.90
8939;DHT22;4504;48.810;9.172;2023-07-29T05:54:41;18.00;99.90
8939;DHT22;4504;48.810;9.172;2023-07-29T05:57:10;18.10;99.90
8939;DHT22;4504;48.810;9.172;2023-07-29T05:59:38;18.10;99.90
8939;DHT22;4504;48.810;9.172;2023-07-29T06:02:05;18.10;99.90
8939;DHT22;4504;48.810;9.172;2023-07-29T06:04:32;18.20;99.90
8939;DHT22;4504;48.810;9.172;2023-07-29T06:06:59;18.30;99.90
8939;DHT22;4504;48.810;9.172;2023-07-29T06:09:26;18.40;99.90
8939;DHT22;4504;48.810;9.172;2023-07-29T06:11:53;18.40;99.90
8939;DHT22;4504;48.810;9.172;2023-07-29T06:14:22;18.50;99.90
8939;DHT22;4504;48.810;9.172;2023-07-29T06:16:49;18.60;99.90
8939;DHT22;4504;48.810;9.172;2023-07-29T06:19:16;18.70;99.90
8939;DHT22;4504;48.810;9.172;2023-07-29T06:21:43;18.80;99.90
8939;DHT22;4504;48.810;9.172;2023-07-29T06:24:10;18.90;99.90
8939;DHT22;4504;48.810;9.172;2023-07-29T06:26:37;19.00;99.90
8939;DHT22;4504;48.810;9.172;2023-07-29T06:29:04;19.00;99.90
8939;DHT22;4504;48.810;9.172;2023-07-29T06:31:32;19.00;99.90
8939;DHT22;4504;48.810;9.172;2023-07-29T06:33:59;19.10;99.90
8939;DHT22;4504;48.810;9.172;2023-07-29T06:36:26;19.20;99.90
8939;DHT22;4504;48.810;9.172;2023-07-29T06:38:53;19.20;99.90
8939;DHT22;4504;48.810;9.172;2023-07-29T06:41:20;19.20;99.90
8939;DHT22;4504;48.810;9.172;2023-07-29T06:43:47;19.20;99.90
8939;DHT22;4504;48.810;9.172;2023-07-29T06:46:14;19.20;99.90
8939;DHT22;4504;48.810;9.172;2023-07-29T06:48:42;19.20;99.90
8939;DHT22;4504;48.810;9.172;2023-07-29T06:51:09;19.10;99.90
8939;DHT22;4504;48.810;9.172;2023-07-29T06:53:36;19.10;99.90
8939;DHT22;4504;48.810;9.172;2023-07-29T06:56:03;19.10;99.90
8939;DHT22;4504;48.810;9.172;2023-07-29T06:58:32;19.10;99.90
8939;DHT22;4504;48.810;9.172;2023-07-29T07:00:59;19.20;99.90
8939;DHT22;4504;48.810;9.172;2023-07-29T07:03:26;19.20;99.90
8939;DHT22;4504;48.810;9.172;2023-07-29T07:05:54;19.10;99.90
8939;DHT22;4504;48.810;9.172;2023-07-29T07:08:21;19.20;99.90
8939;DHT22;4504;48.810;9.172;2023-07-29T07:10:48;19.10;99.90
8939;DHT22;4504;48.810;9.172;2023-07-29T07:13:15;19.10;99.90
8939;DHT22;4504;48.810;9.172;2023-07-29T07:15:42;19.00;99.90
8939;DHT22;4504;48.810;9.172;2023-07-29T07:18:10;19.00;99.90
8939;DHT22;4504;48.810;9.172;2023-07-29T07:20:37;18.90;99.90
8939;DHT22;4504;48.810;9.172;2023-07-29T07:23:06;18.90;99.90
8939;DHT22;4504;48.810;9.172;2023-07-29T07:25:36;18.90;99.90
8939;DHT22;4504;48.810;9.172;2023-07-29T07:28:03;18.90;99.90
8939;DHT22;4504;48.810;9.172;2023-07-29T07:30:30;18.90;99.90
8939;DHT22;4504;48.810;9.172;2023-07-29T07:32:57;18.90;99.90
8939;DHT22;4504;48.810;9.172;2023-07-29T07:35:24;18.90;99.90
8939;DHT22;4504;48.810;9.172;2023-07-29T07:37:51;19.00;99.90
8939;DHT22;4504;48.810;9.172;2023-07-29T07:40:19;19.00;99.90
8939;DHT22;4504;48.810;9.172;2023-07-29T07:42:46;19.00;99.90
8939;DHT22;4504;48.810;9.172;2023-07-29T07:45:13;19.00;99.90
8939;DHT22;4504;48.810;9.172;2023-07-29T07:47:40;19.10;99.90
8939;DHT22;4504;48.810;9.172;2023-07-29T07:50:08;19.10;99.90
8939;DHT22;4504;48.810;9.172;2023-07-29T07:52:35;19.10;99.90
8939;DHT22;4504;48.810;9.172;2023-07-29T07:55:02;19.10;99.90
8939;DHT22;4504;48.810;9.172;2023-07-29T07:57:31;19.10;99.90
8939;DHT22;4504;48.810;9.172;2023-07-29T07:59:58;19.10;99.90
8939;DHT22;4504;48.810;9.172;2023-07-29T08:02:25;19.10;99.90
8939;DHT22;4504;48.810;9.172;2023-07-29T08:04:51;19.10;99.90
8939;DHT22;4504;48.810;9.172;2023-07-29T08:07:30;19.10;99.90
8939;DHT22;4504;48.810;9.172;2023-07-29T08:10:01;19.20;99.90
8939;DHT22;4504;48.810;9.172;2023-07-29T08:12:27;19.30;99.90
8939;DHT22;4504;48.810;9.172;2023-07-29T08:14:56;19.40;99.90
8939;DHT22;4504;48.810;9.172;2023-07-29T08:17:23;19.50;99.90
8939;DHT22;4504;48.810;9.172;2023-07-29T08:19:50;19.50;99.90
8939;DHT22;4504;48.810;9.172;2023-07-29T08:22:17;19.50;99.90
8939;DHT22;4504;48.810;9.172;2023-07-29T08:24:44;19.60;99.90
8939;DHT22;4504;48.810;9.172;2023-07-29T08:27:11;19.60;99.90
8939;DHT22;4504;48.810;9.172;2023-07-29T08:29:39;19.70;99.90
8939;DHT22;4504;48.810;9.172;2023-07-29T08:32:07;19.70;99.90
8939;DHT22;4504;48.810;9.172;2023-07-29T08:34:34;19.70;99.90
8939;DHT22;4504;48.810;9.172;2023-07-29T08:37:01;19.80;99.90
8939;DHT22;4504;48.810;9.172;2023-07-29T08:39:28;19.80;99.90
8939;DHT22;4504;48.810;9.172;2023-07-29T08:42:00;19.80;99.90
8939;DHT22;4504;48.810;9.172;2023-07-29T08:44:31;19.80;99.90
8939;DHT22;4504;48.810;9.172;2023-07-29T08:47:03;19.90;99.90
8939;DHT22;4504;48.810;9.172;2023-07-29T08:49:32;19.90;99.90
8939;DHT22;4504;48.810;9.172;2023-07-29T08:51:59;20.00;99.90
8939;DHT22;4504;48.810;9.172;2023-07-29T08:54:27;20.10;99.90
8939;DHT22;4504;48.810;9.172;2023-07-29T08:56:55;20.30;99.90
8939;DHT22;4504;48.810;9.172;2023-07-29T08:59:22;20.40;99.90
8939;DHT22;4504;48.810;9.172;2023-07-29T09:01:50;20.60;99.90
8939;DHT22;4504;48.810;9.172;2023-07-29T09:04:21;20.70;99.90
8939;DHT22;4504;48.810;9.172;2023-07-29T09:06:51;20.90;99.90
8939;DHT22;4504;48.810;9.172;2023-07-29T09:09:18;20.90;99.90
8939;DHT22;4504;48.810;9.172;2023-07-29T09:11:45;20.90;99.90
8939;DHT22;4504;48.810;9.172;2023-07-29T09:14:12;21.00;99.90
8939;DHT22;4504;48.810;9.172;2023-07-29T09:16:40;21.10;99.90
8939;DHT22;4504;48.810;9.172;2023-07-29T09:19:07;21.10;99.90
8939;DHT22;4504;48.810;9.172;2023-07-29T09:21:34;21.10;99.90
8939;DHT22;4504;48.810;9.172;2023-07-29T09:24:07;21.10;99.90
8939;DHT22;4504;48.810;9.172;2023-07-29T09:26:35;21.10;99.90
8939;DHT22;4504;48.810;9.172;2023-07-29T09:29:02;21.20;99.90
8939;DHT22;4504;48.810;9.172;2023-07-29T09:31:29;21.40;99.90
8939;DHT22;4504;48.810;9.172;2023-07-29T09:33:57;21.50;99.90
8939;DHT22;4504;48.810;9.172;2023-07-29T09:36:25;21.60;99.90
8939;DHT22;4504;48.810;9.172;2023-07-29T09:38:53;21.70;99.90
8939;DHT22;4504;48.810;9.172;2023-07-29T09:41:24;21.90;99.90
8939;DHT22;4504;48.810;9.172;2023-07-29T09:43:55;22.00;99.90
8939;DHT22;4504;48.810;9.172;2023-07-29T09:46:24;22.10;99.90
8939;DHT22;4504;48.810;9.172;2023-07-29T09:48:53;22.00;99.90
8939;DHT22;4504;48.810;9.172;2023-07-29T09:51:21;22.00;99.90
8939;DHT22;4504;48.810;9.172;2023-07-29T09:53:50;21.80;99.90
8939;DHT22;4504;48.810;9.172;2023-07-29T09:56:18;21.90;99.90
8939;DHT22;4504;48.810;9.172;2023-07-29T09:58:48;22.00;99.90
8939;DHT22;4504;48.810;9.172;2023-07-29T10:01:15;22.10;99.90
8939;DHT22;4504;48.810;9.172;2023-07-29T10:03:42;22.20;99.90
8939;DHT22;4504;48.810;9.172;2023-07-29T10:06:11;22.20;99.90
8939;DHT22;4504;48.810;9.172;2023-07-29T10:08:39;22.20;99.90
8939;DHT22;4504;48.810;9.172;2023-07-29T10:11:08;22.30;99.90
8939;DHT22;4504;48.810;9.172;2023-07-29T10:13:36;22.60;99.90
8939;DHT22;4504;48.810;9.172;2023-07-29T10:16:05;22.80;99.90
8939;DHT22;4504;48.810;9.172;2023-07-29T10:18:33;23.00;99.90
8939;DHT22;4504;48.810;9.172;2023-07-29T10:21:01;22.90;99.90
8939;DHT22;4504;48.810;9.172;2023-07-29T10:23:33;22.70;99.90
8939;DHT22;4504;48.810;9.172;2023-07-29T10:26:03;22.40;99.90
8939;DHT22;4504;48.810;9.172;2023-07-29T10:28:31;22.00;99.90
8939;DHT22;4504;48.810;9.172;2023-07-29T10:30:59;21.80;99.90
8939;DHT22;4504;48.810;9.172;2023-07-29T10:33:26;21.70;99.90
8939;DHT22;4504;48.810;9.172;2023-07-29T10:35:54;21.60;99.90
8939;DHT22;4504;48.810;9.172;2023-07-29T10:38:22;21.50;99.90
8939;DHT22;4504;48.810;9.172;2023-07-29T10:40:52;21.50;99.90
8939;DHT22;4504;48.810;9.172;2023-07-29T10:43:24;21.40;99.90
8939;DHT22;4504;48.810;9.172;2023-07-29T10:45:52;21.40;99.90
8939;DHT22;4504;48.810;9.172;2023-07-29T10:48:43;21.40;99.90
8939;DHT22;4504;48.810;9.172;2023-07-29T10:51:27;21.40;99.90
8939;DHT22;4504;48.810;9.172;2023-07-29T10:53:57;21.50;99.90
8939;DHT22;4504;48.810;9.172;2023-07-29T10:56:28;21.40;99.90
8939;DHT22;4504;48.810;9.172;2023-07-29T10:58:56;21.70;99.90
8939;DHT22;4504;48.810;9.172;2023-07-29T11:01:27;22.00;99.90
8939;DHT22;4504;48.810;9.172;2023-07-29T11:04:22;22.10;99.90
8939;DHT22;4504;48.810;9.172;2023-07-29T11:07:24;22.20;99.90
8939;DHT22;4504;48.810;9.172;2023-07-29T11:09:58;22.40;99.90
8939;DHT22;4504;48.810;9.172;2023-07-29T11:12:43;22.50;99.90
8939;DHT22;4504;48.810;9.172;2023-07-29T11:15:17;22.70;99.90
8939;DHT22;4504;48.810;9.172;2023-07-29T11:17:45;23.00;99.90
8939;DHT22;4504;48.810;9.172;2023-07-29T11:20:15;23.10;99.90
8939;DHT22;4504;48.810;9.172;2023-07-29T11:22:42;23.40;99.90
8939;DHT22;4504;48.810;9.172;2023-07-29T11:25:10;23.50;99.90
8939;DHT22;4504;48.810;9.172;2023-07-29T11:27:38;23.40;99.90
8939;DHT22;4504;48.810;9.172;2023-07-29T11:30:07;23.20;99.90
8939;DHT22;4504;48.810;9.172;2023-07-29T11:32:35;22.90;99.90
8939;DHT22;4504;48.810;9.172;2023-07-29T11:35:03;22.80;99.90
8939;DHT22;4504;48.810;9.172;2023-07-29T11:37:33;22.80;99.90
8939;DHT22;4504;48.810;9.172;2023-07-29T11:40:00;22.90;99.90
8939;DHT22;4504;48.810;9.172;2023-07-29T11:42:28;22.80;99.90
8939;DHT22;4504;48.810;9.172;2023-07-29T11:44:56;22.80;99.90
8939;DHT22;4504;48.810;9.172;2023-07-29T11:47:24;22.90;99.90
8939;DHT22;4504;48.810;9.172;2023-07-29T11:49:51;23.00;99.90
8939;DHT22;4504;48.810;9.172;2023-07-29T11:52:19;23.10;99.90
8939;DHT22;4504;48.810;9.172;2023-07-29T11:54:48;23.20;99.90
8939;DHT22;4504;48.810;9.172;2023-07-29T11:57:16;23.30;99.90
8939;DHT22;4504;48.810;9.172;2023-07-29T11:59:44;23.40;99.90
8939;DHT22;4504;48.810;9.172;2023-07-29T12:02:13;23.50;99.90
8939;DHT22;4504;48.810;9.172;2023-07-29T12:04:41;23.80;99.90
8939;DHT22;4504;48.810;9.172;2023-07-29T12:07:08;23.90;99.90
8939;DHT22;4504;48.810;9.172;2023-07-29T12:09:36;24.00;99.90
8939;DHT22;4504;48.810;9.172;2023-07-29T12:12:06;24.00;99.90
8939;DHT22;4504;48.810;9.172;2023-07-29T12:14:34;23.90;99.90
8939;DHT22;4504;48.810;9.172;2023-07-29T12:17:01;24.00;99.90
8939;DHT22;4504;48.810;9.172;2023-07-29T12:19:32;24.00;99.90
8939;DHT22;4504;48.810;9.172;2023-07-29T12:22:01;24.20;99.90
8939;DHT22;4504;48.810;9.172;2023-07-29T12:24:29;24.50;99.90
8939;DHT22;4504;48.810;9.172;2023-07-29T12:26:57;24.70;99.90
8939;DHT22;4504;48.810;9.172;2023-07-29T12:29:26;24.70;99.90
8939;DHT22;4504;48.810;9.172;2023-07-29T12:31:58;24.70;99.90
8939;DHT22;4504;48.810;9.172;2023-07-29T12:34:26;24.70;99.90
8939;DHT22;4504;48.810;9.172;2023-07-29T12:36:55;24.80;99.00
8939;DHT22;4504;48.810;9.172;2023-07-29T12:39:24;24.80;98.30
8939;DHT22;4504;48.810;9.172;2023-07-29T12:41:52;24.80;98.40
8939;DHT22;4504;48.810;9.172;2023-07-29T12:44:20;24.80;97.90
8939;DHT22;4504;48.810;9.172;2023-07-29T12:46:48;24.80;95.90
8939;DHT22;4504;48.810;9.172;2023-07-29T12:49:16;24.80;96.00
8939;DHT22;4504;48.810;9.172;2023-07-29T12:51:43;25.40;96.00
8939;DHT22;4504;48.810;9.172;2023-07-29T12:54:10;25.50;94.10
8939;DHT22;4504;48.810;9.172;2023-07-29T12:56:37;25.60;92.90
8939;DHT22;4504;48.810;9.172;2023-07-29T12:59:05;25.70;93.70
8939;DHT22;4504;48.810;9.172;2023-07-29T13:01:32;25.80;92.90
8939;DHT22;4504;48.810;9.172;2023-07-29T13:04:00;25.70;94.00
8939;DHT22;4504;48.810;9.172;2023-07-29T13:06:27;25.70;93.40
8939;DHT22;4504;48.810;9.172;2023-07-29T13:08:54;25.70;93.90
8939;DHT22;4504;48.810;9.172;2023-07-29T13:11:21;25.80;94.30
8939;DHT22;4504;48.810;9.172;2023-07-29T13:13:48;26.00;93.60
8939;DHT22;4504;48.810;9.172;2023-07-29T13:16:15;26.40;93.20
8939;DHT22;4504;48.810;9.172;2023-07-29T13:18:43;26.70;92.80
8939;DHT22;4504;48.810;9.172;2023-07-29T13:21:12;26.60;92.50
8939;DHT22;4504;48.810;9.172;2023-07-29T13:23:39;26.80;91.90
8939;DHT22;4504;48.810;9.172;2023-07-29T13:26:06;26.60;91.30
8939;DHT22;4504;48.810;9.172;2023-07-29T13:28:33;26.60;92.00
8939;DHT22;4504;48.810;9.172;2023-07-29T13:31:01;26.60;91.70
8939;DHT22;4504;48.810;9.172;2023-07-29T13:33:28;26.40;91.80
8939;DHT22;4504;48.810;9.172;2023-07-29T13:35:59;26.30;92.20
8939;DHT22;4504;48.810;9.172;2023-07-29T13:38:29;26.10;92.10
8939;DHT22;4504;48.810;9.172;2023-07-29T13:40:56;26.00;92.80
8939;DHT22;4504;48.810;9.172;2023-07-29T13:43:23;25.80;93.00
8939;DHT22;4504;48.810;9.172;2023-07-29T13:45:50;25.60;93.00
8939;DHT22;4504;48.810;9.172;2023-07-29T13:48:17;25.70;94.20
8939;DHT22;4504;48.810;9.172;2023-07-29T13:50:44;25.70;93.90
8939;DHT22;4504;48.810;9.172;2023-07-29T13:53:11;25.70;94.10
8939;DHT22;4504;48.810;9.172;2023-07-29T13:55:39;25.50;92.90
8939;DHT22;4504;48.810;9.172;2023-07-29T13:58:06;25.40;93.30
8939;DHT22;4504;48.810;9.172;2023-07-29T14:00:33;25.20;93.40
8939;DHT22;4504;48.810;9.172;2023-07-29T14:03:00;25.20;93.50
8939;DHT22;4504;48.810;9.172;2023-07-29T14:05:27;25.10;94.40
8939;DHT22;4504;48.810;9.172;2023-07-29T14:07:54;25.20;94.10
8939;DHT22;4504;48.810;9.172;2023-07-29T14:10:21;25.30;93.80
8939;DHT22;4504;48.810;9.172;2023-07-29T14:12:50;25.60;93.90
8939;DHT22;4504;48.810;9.172;2023-07-29T14:15:17;26.20;93.60
8939;DHT22;4504;48.810;9.172;2023-07-29T14:17:44;26.90;92.50
8939;DHT22;4504;48.810;9.172;2023-07-29T14:20:11;27.60;91.20
8939;DHT22;4504;48.810;9.172;2023-07-29T14:22:38;27.50;89.80
8939;DHT22;4504;48.810;9.172;2023-07-29T14:25:07;27.80;90.20
8939;DHT22;4504;48.810;9.172;2023-07-29T14:27:34;27.90;88.50
8939;DHT22;4504;48.810;9.172;2023-07-29T14:30:03;27.30;90.30
8939;DHT22;4504;48.810;9.172;2023-07-29T14:32:30;26.70;90.60
8939;DHT22;4504;48.810;9.172;2023-07-29T14:34:57;26.70;91.90
8939;DHT22;4504;48.810;9.172;2023-07-29T14:37:29;26.60;91.60
8939;DHT22;4504;48.810;9.172;2023-07-29T14:39:56;26.40;92.20
8939;DHT22;4504;48.810;9.172;2023-07-29T14:42:24;26.20;92.60
8939;DHT22;4504;48.810;9.172;2023-07-29T14:44:50;25.90;92.70
8939;DHT22;4504;48.810;9.172;2023-07-29T14:47:19;25.60;93.30
8939;DHT22;4504;48.810;9.172;2023-07-29T14:49:46;25.60;93.60
8939;DHT22;4504;48.810;9.172;2023-07-29T14:52:13;25.40;93.60
8939;DHT22;4504;48.810;9.172;2023-07-29T14:54:40;25.30;93.90
8939;DHT22;4504;48.810;9.172;2023-07-29T14:57:07;25.30;94.20
8939;DHT22;4504;48.810;9.172;2023-07-29T14:59:34;25.00;94.20
8939;DHT22;4504;48.810;9.172;2023-07-29T15:02:01;25.00;95.30
8939;DHT22;4504;48.810;9.172;2023-07-29T15:04:29;25.00;95.10
8939;DHT22;4504;48.810;9.172;2023-07-29T15:06:56;24.80;94.90
8939;DHT22;4504;48.810;9.172;2023-07-29T15:09:24;24.70;95.70
8939;DHT22;4504;48.810;9.172;2023-07-29T15:11:51;24.50;95.90
8939;DHT22;4504;48.810;9.172;2023-07-29T15:14:18;24.50;96.00
8939;DHT22;4504;48.810;9.172;2023-07-29T15:16:45;24.40;96.30
8939;DHT22;4504;48.810;9.172;2023-07-29T15:19:12;24.70;96.40
8939;DHT22;4504;48.810;9.172;2023-07-29T15:21:41;24.90;95.90
8939;DHT22;4504;48.810;9.172;2023-07-29T15:24:08;25.40;95.40
8939;DHT22;4504;48.810;9.172;2023-07-29T15:26:35;25.60;95.30
8939;DHT22;4504;48.810;9.172;2023-07-29T15:29:02;25.60;94.40
8939;DHT22;4504;48.810;9.172;2023-07-29T15:31:29;25.80;94.10
8939;DHT22;4504;48.810;9.172;2023-07-29T15:33:56;25.60;94.50
8939;DHT22;4504;48.810;9.172;2023-07-29T15:36:23;25.60;93.90
8939;DHT22;4504;48.810;9.172;2023-07-29T15:38:51;25.70;94.10
8939;DHT22;4504;48.810;9.172;2023-07-29T15:41:18;25.70;94.60
8939;DHT22;4504;48.810;9.172;2023-07-29T15:43:45;26.20;94.70
8939;DHT22;4504;48.810;9.172;2023-07-29T15:46:12;26.40;93.90
8939;DHT22;4504;48.810;9.172;2023-07-29T15:48:39;26.30;93.60
8939;DHT22;4504;48.810;9.172;2023-07-29T15:51:06;26.00;93.60
8939;DHT22;4504;48.810;9.172;2023-07-29T15:53:33;25.70;94.30
8939;DHT22;4504;48.810;9.172;2023-07-29T15:56:02;25.70;94.00
8939;DHT22;4504;48.810;9.172;2023-07-29T15:58:29;25.70;94.20
8939;DHT22;4504;48.810;9.172;2023-07-29T16:00:56;25.40;94.90
8939;DHT22;4504;48.810;9.172;2023-07-29T16:03:23;25.30;94.80
8939;DHT22;4504;48.810;9.172;2023-07-29T16:05:51;24.90;95.30
8939;DHT22;4504;48.810;9.172;2023-07-29T16:08:18;24.80;96.30